Time;durP1;ratioP1;P1;durP2;ratioP2;P2;SDS_P1;SDS_P2;PMS_P1;PMS_P2;Temp;Humidity;BMP_temperature;BMP_pressure;BME280_temperature;BME280_humidity;BME280_pressure;Samples;Min_cycle;Max_cycle;Signal;HPM_P1;HPM_P2
2023/05/01 00:04:09;;;;;;;1.67;0.65;;;;;;;;;;20840718;28;20475;-60
2023/05/01 00:14:11;;;;;;;2.88;0.60;;;;;;;;;;20837807;28;20051;-60
2023/05/01 00:24:16;;;;;;;0.50;0.35;;;;;;;;;;20839024;28;20049;-61
2023/05/01 00:34:18;;;;;;;2.03;0.50;;;;;;;;;;20837366;28;20042;-61
2023/05/01 00:44:19;;;;;;;0.82;0.40;;;;;;;;;;20836500;28;20055;-61
2023/05/01 00:54:24;;;;;;;2.25;0.60;;;;;;;;;;20835874;28;20107;-61
2023/05/01 01:04:30;;;;;;;3.13;0.60;;;;;;;;;;20834723;28;20061;-60
2023/05/01 01:14:33;;;;;;;1.33;0.50;;;;;;;;;;20834131;28;20045;-60
2023/05/01 01:24:53;;;;;;;3.47;0.57;;;;;;;;;;20834105;28;20064;-60
2023/05/01 01:35:01;;;;;;;0.77;0.40;;;;;;;;;;20834036;28;20475;-60
2023/05/01 01:45:09;;;;;;;1.50;0.20;;;;;;;;;;20832090;28;20067;-60
2023/05/01 01:55:12;;;;;;;0.37;0.13;;;;;;;;;;20831603;28;20058;-61
2023/05/01 02:05:16;;;;;;;0.88;0.30;;;;;;;;;;20832194;28;20045;-61
2023/05/01 02:15:19;;;;;;;0.47;0.20;;;;;;;;;;20831754;28;20050;-61
2023/05/01 02:25:21;;;;;;;0.70;0.40;;;;;;;;;;20829913;28;20053;-61
2023/05/01 02:35:23;;;;;;;0.50;0.40;;;;;;;;;;20831315;28;20056;-61
2023/05/01 02:45:25;;;;;;;0.93;0.35;;;;;;;;;;20844766;28;20053;-61
2023/05/01 02:55:28;;;;;;;0.90;0.40;;;;;;;;;;20846452;28;20077;-61
2023/05/01 03:05:29;;;;;;;1.73;0.40;;;;;;;;;;20845426;28;20514;-59
2023/05/01 03:15:31;;;;;;;0.68;0.40;;;;;;;;;;20843489;28;20053;-61
2023/05/01 03:25:33;;;;;;;0.60;0.30;;;;;;;;;;20843403;28;20076;-60
2023/05/01 03:35:35;;;;;;;0.82;0.22;;;;;;;;;;20842199;28;20046;-61
2023/05/01 03:45:36;;;;;;;1.08;0.45;;;;;;;;;;20841126;28;20056;-60
2023/05/01 03:55:41;;;;;;;0.95;0.22;;;;;;;;;;20841179;28;20053;-61
2023/05/01 04:05:43;;;;;;;0.50;0.40;;;;;;;;;;20839419;28;20126;-61
2023/05/01 04:15:48;;;;;;;0.90;0.30;;;;;;;;;;20838973;28;20091;-61
2023/05/01 04:25:50;;;;;;;0.40;0.20;;;;;;;;;;20839691;28;20059;-61
2023/05/01 04:35:52;;;;;;;0.55;0.20;;;;;;;;;;20838695;28;20148;-60
2023/05/01 04:45:54;;;;;;;1.70;0.38;;;;;;;;;;20837703;28;20041;-61
2023/05/01 04:55:56;;;;;;;0.88;0.20;;;;;;;;;;20837075;28;20437;-61
2023/05/01 05:05:57;;;;;;;0.50;0.20;;;;;;;;;;20835405;28;20164;-60
2023/05/01 05:15:59;;;;;;;0.60;0.15;;;;;;;;;;20835380;28;20100;-61
2023/05/01 05:26:01;;;;;;;1.77;0.35;;;;;;;;;;20832531;28;20053;-60
2023/05/01 05:36:03;;;;;;;0.77;0.30;;;;;;;;;;20831236;28;20107;-62
2023/05/01 05:46:05;;;;;;;1.35;0.50;;;;;;;;;;20831745;28;20049;-60
2023/05/01 05:56:07;;;;;;;0.85;0.32;;;;;;;;;;20832205;28;20545;-61
2023/05/01 06:06:09;;;;;;;1.45;0.70;;;;;;;;;;20832063;28;20045;-62
2023/05/01 06:16:11;;;;;;;1.65;0.90;;;;;;;;;;20830464;28;20042;-61
2023/05/01 06:26:13;;;;;;;1.85;1.13;;;;;;;;;;20829529;28;20069;-60
2023/05/01 06:36:14;;;;;;;1.85;0.90;;;;;;;;;;20828914;28;20053;-61
2023/05/01 06:46:16;;;;;;;2.05;0.40;;;;;;;;;;20829371;28;20049;-62
2023/05/01 06:56:18;;;;;;;0.70;0.40;;;;;;;;;;20827887;28;20041;-62
2023/05/01 07:06:20;;;;;;;0.55;0.30;;;;;;;;;;20829807;28;20479;-62
2023/05/01 07:16:22;;;;;;;1.23;0.25;;;;;;;;;;20829147;28;20114;-61
2023/05/01 07:26:27;;;;;;;1.05;0.30;;;;;;;;;;20832299;28;20065;-61
2023/05/01 07:36:32;;;;;;;0.93;0.47;;;;;;;;;;20831362;28;20445;-65
2023/05/01 07:46:35;;;;;;;1.83;0.30;;;;;;;;;;20838706;28;20046;-67
2023/05/01 07:56:37;;;;;;;0.93;0.32;;;;;;;;;;20837142;28;20060;-68
2023/05/01 08:06:39;;;;;;;1.75;0.40;;;;;;;;;;20837277;28;20046;-67
2023/05/01 08:16:41;;;;;;;2.38;0.40;;;;;;;;;;20835121;28;20060;-63
2023/05/01 08:26:43;;;;;;;2.08;0.63;;;;;;;;;;20840884;28;20525;-71
2023/05/01 08:36:44;;;;;;;0.98;0.32;;;;;;;;;;20833882;28;20182;-66
2023/05/01 08:46:48;;;;;;;3.42;0.65;;;;;;;;;;20836967;28;20053;-66
2023/05/01 08:56:50;;;;;;;4.45;0.50;;;;;;;;;;20835352;28;20056;-66
2023/05/01 09:06:54;;;;;;;1.85;0.38;;;;;;;;;;20834661;28;20052;-64
2023/05/01 09:16:56;;;;;;;1.70;0.57;;;;;;;;;;20835044;28;20156;-67
2023/05/01 09:26:58;;;;;;;1.20;0.40;;;;;;;;;;20833632;28;20084;-66
2023/05/01 09:37:00;;;;;;;2.05;0.50;;;;;;;;;;20831897;28;20053;-65
2023/05/01 09:47:02;;;;;;;0.75;0.35;;;;;;;;;;20831160;28;20049;-65
2023/05/01 09:57:05;;;;;;;2.08;0.40;;;;;;;;;;20830645;28;20103;-65
2023/05/01 10:07:13;;;;;;;2.08;0.50;;;;;;;;;;20831801;28;20403;-68
2023/05/01 10:17:21;;;;;;;1.73;0.60;;;;;;;;;;20831391;28;20052;-66
2023/05/01 10:27:24;;;;;;;2.88;0.50;;;;;;;;;;20828987;28;20058;-68
2023/05/01 10:37:46;;;;;;;1.60;0.60;;;;;;;;;;20830110;28;20461;-65
2023/05/01 10:47:48;;;;;;;1.30;0.55;;;;;;;;;;20828680;28;20049;-66
2023/05/01 10:57:50;;;;;;;1.27;0.50;;;;;;;;;;20829627;28;20061;-66
2023/05/01 11:08:11;;;;;;;3.35;1.13;;;;;;;;;;20845120;28;20483;-65
2023/05/01 11:18:13;;;;;;;1.58;0.40;;;;;;;;;;20843113;28;20118;-68
2023/05/01 11:28:18;;;;;;;1.20;0.50;;;;;;;;;;20842932;28;20053;-66
2023/05/01 11:38:20;;;;;;;2.15;0.55;;;;;;;;;;20841851;28;20111;-67
2023/05/01 11:48:22;;;;;;;1.00;0.55;;;;;;;;;;20841958;28;20049;-66
2023/05/01 11:58:32;;;;;;;1.25;0.60;;;;;;;;;;20841660;28;20451;-66
2023/05/01 12:08:33;;;;;;;2.60;0.80;;;;;;;;;;20840455;28;20052;-66
2023/05/01 12:18:36;;;;;;;3.25;0.68;;;;;;;;;;20839674;28;20049;-66
2023/05/01 12:28:37;;;;;;;1.35;0.85;;;;;;;;;;20838293;28;20057;-65
2023/05/01 12:38:39;;;;;;;1.23;0.65;;;;;;;;;;20837885;28;20410;-66
2023/05/01 12:48:41;;;;;;;1.95;0.45;;;;;;;;;;20834817;28;20045;-65
2023/05/01 12:58:43;;;;;;;0.77;0.63;;;;;;;;;;20836609;28;20410;-64
2023/05/01 13:08:45;;;;;;;1.13;0.63;;;;;;;;;;20834615;28;20084;-64
2023/05/01 13:18:47;;;;;;;2.22;0.60;;;;;;;;;;20834789;28;20508;-66
2023/05/01 13:28:49;;;;;;;1.42;0.50;;;;;;;;;;20832048;28;20139;-64
2023/05/01 13:38:52;;;;;;;1.52;0.63;;;;;;;;;;20832532;28;20050;-66
2023/05/01 13:48:55;;;;;;;1.27;0.40;;;;;;;;;;20832693;28;20084;-65
2023/05/01 13:58:59;;;;;;;0.70;0.68;;;;;;;;;;20832490;28;20046;-66
2023/05/01 14:09:02;;;;;;;0.82;0.50;;;;;;;;;;20831987;28;20049;-67
2023/05/01 14:19:05;;;;;;;1.20;0.80;;;;;;;;;;20830083;28;20063;-67
2023/05/01 14:29:12;;;;;;;1.90;0.85;;;;;;;;;;20830161;28;20049;-66
2023/05/01 14:39:14;;;;;;;0.80;0.38;;;;;;;;;;20843203;28;20057;-66
2023/05/01 14:49:20;;;;;;;1.55;0.70;;;;;;;;;;20847450;28;20403;-65
2023/05/01 14:59:23;;;;;;;2.05;0.70;;;;;;;;;;20845819;28;20052;-67
2023/05/01 15:09:25;;;;;;;2.13;1.02;;;;;;;;;;20845044;28;20152;-66
2023/05/01 15:19:27;;;;;;;5.45;3.13;;;;;;;;;;20843119;28;20049;-65
2023/05/01 15:29:28;;;;;;;5.03;1.10;;;;;;;;;;20842373;28;20064;-66
2023/05/01 15:39:31;;;;;;;4.05;1.73;;;;;;;;;;20842657;28;20558;-66
2023/05/01 15:49:33;;;;;;;2.78;0.63;;;;;;;;;;20839953;28;20092;-66
2023/05/01 15:59:35;;;;;;;1.27;0.70;;;;;;;;;;20840655;28;20137;-66
2023/05/01 16:09:37;;;;;;;2.30;1.08;;;;;;;;;;20839198;28;20045;-66
2023/05/01 16:19:40;;;;;;;2.15;1.10;;;;;;;;;;20839818;28;20507;-66
2023/05/01 16:29:41;;;;;;;1.08;0.57;;;;;;;;;;20837816;28;20461;-65
2023/05/01 16:39:43;;;;;;;1.65;0.90;;;;;;;;;;20836173;28;20049;-65
2023/05/01 16:49:45;;;;;;;2.35;0.80;;;;;;;;;;20836679;28;20483;-64
2023/05/01 16:59:47;;;;;;;1.40;0.50;;;;;;;;;;20835236;28;20080;-66
2023/05/01 17:09:49;;;;;;;1.88;0.63;;;;;;;;;;20835118;28;20041;-64
2023/05/01 17:19:51;;;;;;;1.08;0.57;;;;;;;;;;20832665;28;20104;-65
2023/05/01 17:30:03;;;;;;;3.00;0.75;;;;;;;;;;21067907;28;20477;-64
2023/05/01 17:40:12;;;;;;;3.33;1.48;;;;;;;;;;21067196;28;20048;-64
2023/05/01 17:50:14;;;;;;;1.27;0.60;;;;;;;;;;21067650;28;20048;-64
2023/05/01 18:00:16;;;;;;;2.00;0.60;;;;;;;;;;21066561;28;20485;-64
2023/05/01 18:10:18;;;;;;;4.97;1.92;;;;;;;;;;21065770;28;20405;-65
2023/05/01 18:20:20;;;;;;;1.55;1.10;;;;;;;;;;21064964;28;20139;-65
2023/05/01 18:30:22;;;;;;;2.10;0.75;;;;;;;;;;21063046;28;20041;-64
2023/05/01 18:40:25;;;;;;;2.25;0.80;;;;;;;;;;21012090;28;20049;-65
2023/05/01 18:50:27;;;;;;;3.20;1.10;;;;;;;;;;21004756;28;20088;-69
2023/05/01 19:00:29;;;;;;;2.58;0.98;;;;;;;;;;21002462;28;20052;-67
2023/05/01 19:10:31;;;;;;;1.50;0.80;;;;;;;;;;21002601;28;20113;-68
2023/05/01 19:20:33;;;;;;;2.33;0.60;;;;;;;;;;21003649;28;20056;-67
2023/05/01 19:30:35;;;;;;;1.85;0.75;;;;;;;;;;21002457;28;20139;-67
2023/05/01 19:40:38;;;;;;;7.30;0.77;;;;;;;;;;21002143;28;20428;-68
2023/05/01 19:50:41;;;;;;;2.20;0.80;;;;;;;;;;20998765;28;20082;-67
2023/05/01 20:00:43;;;;;;;2.45;0.80;;;;;;;;;;20999496;28;20054;-68
2023/05/01 20:10:45;;;;;;;2.47;1.13;;;;;;;;;;20997650;28;20071;-68
2023/05/01 20:20:47;;;;;;;1.38;0.85;;;;;;;;;;20997875;28;20064;-68
2023/05/01 20:30:49;;;;;;;1.98;0.88;;;;;;;;;;20998127;28;20044;-68
2023/05/01 20:40:51;;;;;;;2.58;0.75;;;;;;;;;;20997654;28;20048;-68
2023/05/01 20:50:52;;;;;;;4.88;1.20;;;;;;;;;;20996263;28;20048;-67
2023/05/01 21:00:55;;;;;;;4.72;1.13;;;;;;;;;;20995459;28;20094;-67
2023/05/01 21:10:56;;;;;;;7.53;2.20;;;;;;;;;;20994766;28;20051;-68
2023/05/01 21:21:01;;;;;;;3.35;0.82;;;;;;;;;;20994331;28;20052;-68
2023/05/01 21:31:02;;;;;;;3.45;0.95;;;;;;;;;;20995363;28;20041;-67
2023/05/01 21:41:04;;;;;;;1.40;0.90;;;;;;;;;;20995233;28;20486;-68
2023/05/01 21:51:06;;;;;;;1.75;0.80;;;;;;;;;;20993810;28;20177;-68
2023/05/01 22:01:11;;;;;;;1.70;0.80;;;;;;;;;;20994613;28;20075;-68
2023/05/01 22:11:13;;;;;;;4.57;1.90;;;;;;;;;;21000092;28;20049;-68
2023/05/01 22:21:15;;;;;;;6.43;3.70;;;;;;;;;;21009313;28;20550;-68
2023/05/01 22:31:17;;;;;;;6.20;2.15;;;;;;;;;;21007418;28;20052;-67
2023/05/01 22:41:19;;;;;;;4.55;1.42;;;;;;;;;;21007965;28;20048;-67
2023/05/01 22:51:20;;;;;;;2.17;0.52;;;;;;;;;;21007567;28;20478;-67
2023/05/01 23:01:22;;;;;;;4.53;1.73;;;;;;;;;;21005061;28;20044;-68
2023/05/01 23:11:27;;;;;;;1.40;0.65;;;;;;;;;;21004744;28;20040;-67
2023/05/01 23:21:30;;;;;;;1.63;0.80;;;;;;;;;;21004707;28;20048;-67
2023/05/01 23:31:31;;;;;;;0.98;0.60;;;;;;;;;;21003097;28;20044;-68
2023/05/01 23:41:33;;;;;;;1.70;0.70;;;;;;;;;;21003299;28;20091;-68
2023/05/01 23:51:36;;;;;;;2.90;0.80;;;;;;;;;;21002737;28;20149;-67
